createdAt,value
2019-04-04T00:01:55.121Z,4.90
2019-04-04T00:04:25.599Z,5.10
2019-04-04T00:06:57.836Z,5.15
2019-04-04T00:09:28.037Z,5.60
2019-04-04T00:11:58.371Z,5.58
2019-04-04T00:14:28.822Z,5.00
2019-04-04T00:16:59.280Z,5.33
2019-04-04T00:19:30.471Z,5.20
2019-04-04T00:22:00.998Z,5.15
2019-04-04T00:24:31.427Z,5.25
2019-04-04T00:27:01.892Z,5.10
2019-04-04T00:29:32.299Z,5.50
2019-04-04T00:32:02.840Z,5.00
2019-04-04T00:34:33.270Z,5.33
2019-04-04T00:37:04.730Z,5.72
2019-04-04T00:39:35.597Z,4.83
2019-04-04T00:42:06.063Z,4.95
2019-04-04T00:44:36.413Z,5.10
2019-04-04T00:47:06.830Z,5.37
2019-04-04T00:49:37.255Z,5.37
2019-04-04T00:52:10.146Z,5.05
2019-04-04T00:54:39.706Z,5.25
2019-04-04T00:57:10.124Z,5.22
2019-04-04T00:59:40.495Z,5.40
2019-04-04T01:02:10.859Z,4.97
2019-04-04T01:04:41.328Z,5.22
2019-04-04T01:07:11.767Z,4.70
2019-04-04T01:09:42.078Z,5.37
2019-04-04T01:12:12.571Z,5.15
2019-04-04T01:14:42.965Z,5.33
2019-04-04T01:17:13.474Z,5.40
2019-04-04T01:19:43.975Z,5.72
2019-04-04T01:22:14.516Z,5.30
2019-04-04T01:24:44.955Z,5.22
2019-04-04T01:27:15.363Z,5.12
2019-04-04T01:29:45.859Z,5.50
2019-04-04T01:32:17.103Z,5.60
2019-04-04T01:34:48.002Z,5.35
2019-04-04T01:37:18.336Z,5.40
2019-04-04T01:39:48.748Z,5.20
2019-04-04T01:42:19.088Z,5.20
2019-04-04T01:44:49.440Z,5.22
2019-04-04T01:47:19.716Z,5.62
2019-04-04T01:49:51.910Z,5.25
2019-04-04T01:52:21.995Z,4.92
2019-04-04T01:54:52.403Z,4.97
2019-04-04T01:57:22.767Z,5.25
2019-04-04T01:59:53.144Z,5.17
2019-04-04T02:02:23.484Z,5.10
2019-04-04T02:04:55.814Z,5.10
2019-04-04T02:07:25.955Z,5.12
2019-04-04T02:09:56.382Z,5.25
2019-04-04T02:12:26.746Z,5.40
2019-04-04T02:14:57.106Z,5.62
2019-04-04T02:17:28.489Z,5.00
2019-04-04T02:19:58.909Z,5.20
2019-04-04T02:22:31.016Z,5.22
2019-04-04T02:25:03.169Z,5.40
2019-04-04T02:27:33.847Z,4.85
2019-04-04T02:30:04.543Z,5.95
2019-04-04T02:32:34.964Z,5.03
2019-04-04T02:35:10.152Z,5.08
2019-04-04T02:37:37.600Z,5.78
2019-04-04T02:40:09.040Z,5.60
2019-04-04T02:42:40.333Z,5.83
2019-04-04T02:45:10.600Z,5.03
2019-04-04T02:47:40.924Z,5.10
2019-04-04T02:50:11.258Z,5.33
2019-04-04T02:52:45.732Z,5.30
2019-04-04T02:55:13.598Z,5.55
2019-04-04T02:57:43.920Z,5.30
2019-04-04T03:00:14.157Z,5.12
2019-04-04T03:02:44.470Z,5.55
2019-04-04T03:05:18.813Z,5.75
2019-04-04T03:07:46.670Z,5.05
2019-04-04T03:10:16.924Z,5.45
2019-04-04T03:12:47.260Z,5.00
2019-04-04T03:15:17.523Z,5.37
2019-04-04T03:17:47.922Z,5.03
2019-04-04T03:20:18.149Z,5.60
2019-04-04T03:22:48.506Z,5.33
2019-04-04T03:25:18.842Z,5.55
2019-04-04T03:27:49.159Z,5.08
2019-04-04T03:30:19.577Z,4.60
2019-04-04T03:32:54.046Z,5.17
2019-04-04T03:35:26.573Z,5.35
2019-04-04T03:37:53.873Z,5.28
2019-04-04T03:40:25.567Z,4.72
2019-04-04T03:42:56.244Z,5.08
2019-04-04T03:45:27.647Z,5.72
2019-04-04T03:47:58.072Z,5.70
2019-04-04T03:50:30.110Z,5.20
2019-04-04T03:53:00.365Z,5.33
2019-04-04T03:55:30.669Z,4.55
2019-04-04T03:58:00.961Z,5.33
2019-04-04T04:00:31.327Z,5.17
2019-04-04T04:03:01.656Z,5.40
2019-04-04T04:05:35.588Z,5.70
2019-04-04T04:08:04.795Z,5.30
2019-04-04T04:10:35.106Z,5.20
2019-04-04T04:13:05.595Z,5.42
2019-04-04T04:15:35.878Z,5.42
2019-04-04T04:18:06.273Z,5.17
2019-04-04T04:20:37.683Z,5.50
2019-04-04T04:23:08.205Z,5.12
2019-04-04T04:25:38.542Z,5.50
2019-04-04T04:28:08.907Z,5.25
2019-04-04T04:30:40.471Z,5.70
2019-04-04T04:33:11.095Z,4.97
2019-04-04T04:35:42.371Z,4.95
2019-04-04T04:38:13.837Z,5.30
2019-04-04T04:40:46.856Z,4.65
2019-04-04T04:43:16.357Z,6.00
2019-04-04T04:45:46.829Z,5.05
2019-04-04T04:48:17.026Z,5.12
2019-04-04T04:50:47.278Z,5.35
2019-04-04T04:53:18.849Z,5.42
2019-04-04T04:55:49.811Z,5.45
2019-04-04T04:58:20.088Z,5.05
2019-04-04T05:00:50.443Z,5.00
2019-04-04T05:03:22.173Z,5.35
2019-04-04T05:05:52.758Z,5.75
2019-04-04T05:08:23.103Z,5.25
2019-04-04T05:10:53.535Z,4.95
2019-04-04T05:13:25.015Z,5.70
2019-04-04T05:15:55.884Z,5.20
2019-04-04T05:18:26.249Z,5.33
2019-04-04T05:20:57.484Z,5.33
2019-04-04T05:23:27.827Z,5.17
2019-04-04T05:25:58.173Z,5.30
2019-04-04T05:28:28.633Z,5.08
2019-04-04T05:30:59.071Z,5.17
2019-04-04T05:33:31.532Z,4.90
2019-04-04T05:36:05.334Z,5.00
2019-04-04T05:38:48.970Z,4.90
2019-04-04T05:41:19.169Z,5.47
2019-04-04T05:43:50.413Z,5.70
2019-04-04T05:46:20.831Z,4.92
2019-04-04T05:48:51.185Z,4.75
2019-04-04T05:51:21.957Z,5.35
2019-04-04T05:53:52.514Z,5.10
2019-04-04T05:56:24.360Z,5.17
2019-04-04T05:58:57.101Z,5.75
2019-04-04T06:01:27.475Z,6.17
2019-04-04T06:03:57.679Z,5.60
2019-04-04T06:06:28.050Z,5.37
2019-04-04T06:08:58.311Z,4.75
2019-04-04T06:11:28.878Z,5.37
2019-04-04T06:13:59.680Z,6.20
2019-04-04T06:16:35.019Z,5.80
2019-04-04T06:19:07.555Z,6.03
2019-04-04T06:21:40.671Z,6.17
2019-04-04T06:24:11.687Z,6.10
2019-04-04T06:26:43.728Z,7.35
2019-04-04T06:29:17.356Z,7.92
2019-04-04T06:32:10.220Z,8.35
2019-04-04T06:34:44.308Z,7.87
2019-04-04T06:37:28.348Z,7.65
2019-04-04T06:40:00.599Z,7.70
2019-04-04T06:42:35.691Z,7.78
2019-04-04T06:45:03.647Z,7.40
2019-04-04T06:47:35.906Z,7.95
2019-04-04T06:50:08.076Z,7.37
2019-04-04T06:52:51.138Z,8.00
2019-04-04T06:55:41.757Z,7.83
2019-04-04T06:58:17.033Z,7.90
2019-04-04T07:00:49.996Z,7.45
2019-04-04T07:03:32.011Z,8.73
2019-04-04T07:06:02.437Z,7.62
2019-04-04T07:08:37.139Z,8.00
2019-04-04T07:11:21.281Z,8.23
2019-04-04T07:13:44.698Z,7.92
2019-04-04T07:16:23.835Z,8.03
2019-04-04T07:19:41.997Z,8.48
2019-04-04T07:22:12.753Z,8.50
2019-04-04T07:24:45.438Z,8.65
2019-04-04T07:27:27.516Z,8.78
2019-04-04T07:30:03.995Z,8.38
2019-04-04T07:32:34.882Z,9.28
2019-04-04T07:35:05.745Z,8.70
2019-04-04T07:37:38.953Z,8.23
2019-04-04T07:40:10.001Z,8.35
2019-04-04T07:42:42.822Z,8.08
2019-04-04T07:45:15.987Z,8.48
2019-04-04T07:49:41.397Z,8.80
2019-04-04T07:54:55.262Z,8.80
2019-04-04T07:57:29.988Z,8.85
2019-04-04T08:00:12.882Z,8.45
2019-04-04T08:02:52.170Z,8.28
2019-04-04T08:05:26.321Z,8.68
2019-04-04T08:07:57.062Z,8.43
2019-04-04T08:10:27.603Z,8.35
2019-04-04T08:13:02.496Z,8.48
2019-04-04T08:15:35.971Z,10.08
2019-04-04T08:18:07.141Z,8.70
2019-04-04T08:20:37.965Z,8.43
2019-04-04T08:23:08.489Z,9.45
2019-04-04T08:25:53.958Z,8.90
2019-04-04T08:28:28.185Z,8.60
2019-04-04T08:31:01.309Z,9.88
2019-04-04T08:33:36.444Z,9.00
2019-04-04T08:36:09.537Z,8.73
2019-04-04T08:38:42.366Z,8.65
2019-04-04T08:41:16.366Z,8.53
2019-04-04T08:43:48.470Z,8.93
2019-04-04T08:46:24.274Z,8.10
2019-04-04T08:48:56.828Z,9.13
2019-04-04T08:51:27.474Z,9.08
2019-04-04T08:54:07.103Z,8.40
2019-04-04T08:56:37.565Z,9.70
2019-04-04T08:59:08.368Z,10.75
2019-04-04T09:01:39.096Z,9.08
2019-04-04T09:04:10.740Z,9.55
2019-04-04T09:06:41.202Z,8.83
2019-04-04T09:09:12.096Z,9.68
2019-04-04T09:11:44.462Z,9.35
2019-04-04T09:14:15.365Z,10.38
2019-04-04T09:16:46.276Z,9.75
2019-04-04T09:19:26.350Z,9.83
2019-04-04T09:21:57.823Z,10.15
2019-04-04T09:24:30.469Z,9.58
2019-04-04T09:29:59.491Z,9.70
2019-04-04T09:32:53.392Z,9.15
2019-04-04T09:35:30.176Z,9.00
2019-04-04T09:38:03.965Z,9.48
2019-04-04T09:40:35.086Z,9.60
2019-04-04T09:43:13.200Z,9.23
2019-04-04T09:45:43.445Z,9.20
2019-04-04T09:48:17.132Z,9.55
2019-04-04T09:50:55.484Z,9.03
2019-04-04T09:53:25.954Z,8.18
2019-04-04T09:56:05.426Z,9.53
2019-04-04T10:04:22.991Z,9.03
2019-04-04T10:06:51.074Z,9.05
2019-04-04T10:09:22.619Z,9.90
2019-04-04T10:11:56.397Z,9.65
2019-04-04T10:14:27.438Z,8.95
2019-04-04T10:16:57.853Z,8.90
2019-04-04T10:19:28.415Z,9.08
2019-04-04T10:22:02.570Z,9.10
2019-04-04T10:24:33.049Z,9.53
2019-04-04T10:27:06.238Z,9.13
2019-04-04T10:29:36.622Z,9.75
2019-04-04T10:32:07.508Z,9.23
2019-04-04T10:34:38.164Z,9.10
2019-04-04T10:37:08.545Z,9.55
2019-04-04T10:39:41.771Z,9.48
2019-04-04T10:42:12.240Z,9.73
2019-04-04T10:44:42.723Z,8.75
2019-04-04T10:47:14.081Z,8.28
2019-04-04T10:49:44.512Z,9.18
2019-04-04T10:52:16.229Z,10.08
2019-04-04T10:54:47.307Z,9.23
2019-04-04T10:57:27.641Z,9.65
2019-04-04T10:59:59.296Z,9.98
2019-04-04T11:02:29.809Z,10.45
2019-04-04T11:05:02.906Z,10.50
2019-04-04T11:07:33.704Z,10.30
2019-04-04T11:10:05.725Z,10.82
2019-04-04T11:12:52.391Z,10.28
2019-04-04T11:15:25.414Z,10.43
2019-04-04T11:17:56.211Z,10.68
2019-04-04T11:20:26.783Z,10.68
2019-04-04T11:22:58.154Z,10.35
2019-04-04T11:25:35.889Z,10.18
2019-04-04T11:28:17.048Z,10.18
2019-04-04T11:30:47.427Z,10.90
2019-04-04T11:33:22.782Z,10.48
2019-04-04T11:35:57.627Z,9.60
2019-04-04T11:38:28.526Z,9.88
2019-04-04T11:41:00.866Z,10.28
2019-04-04T11:43:35.979Z,9.75
2019-04-04T11:46:06.630Z,9.78
2019-04-04T11:48:40.104Z,10.50
2019-04-04T11:51:13.048Z,11.05
2019-04-04T11:53:45.074Z,10.43
2019-04-04T11:56:16.965Z,10.68
2019-04-04T11:58:49.126Z,10.82
2019-04-04T12:01:21.194Z,11.45
2019-04-04T12:03:52.020Z,11.70
2019-04-04T12:06:22.494Z,11.03
2019-04-04T12:08:52.745Z,10.90
2019-04-04T12:11:23.017Z,11.22
2019-04-04T12:13:53.773Z,10.50
2019-04-04T12:19:00.446Z,11.85
2019-04-04T12:21:32.601Z,11.48
2019-04-04T12:24:05.224Z,11.33
2019-04-04T12:26:35.901Z,10.60
2019-04-04T12:29:06.581Z,10.88
2019-04-04T12:31:37.190Z,10.35
2019-04-04T12:34:08.761Z,10.98
2019-04-04T12:36:46.415Z,10.58
2019-04-04T12:39:18.615Z,10.35
2019-04-04T12:41:49.474Z,11.15
2019-04-04T12:44:20.106Z,10.58
2019-04-04T12:46:50.901Z,10.40
2019-04-04T12:49:21.413Z,10.18
2019-04-04T12:51:51.855Z,10.53
2019-04-04T12:54:28.189Z,10.45
2019-04-04T12:59:31.877Z,10.40
2019-04-04T13:02:02.451Z,9.95
2019-04-04T13:04:33.683Z,10.10
2019-04-04T13:07:12.431Z,10.50
2019-04-04T13:09:44.467Z,10.15
2019-04-04T13:12:16.392Z,9.75
2019-04-04T13:14:48.186Z,10.20
2019-04-04T13:17:19.183Z,10.05
2019-04-04T13:19:53.630Z,9.98
2019-04-04T13:22:26.085Z,10.65
2019-04-04T13:25:18.668Z,10.18
2019-04-04T13:27:51.259Z,10.50
2019-04-04T13:30:23.754Z,11.12
2019-04-04T13:32:55.344Z,10.40
2019-04-04T13:35:29.289Z,10.50
2019-04-04T13:38:04.572Z,11.25
2019-04-04T13:40:45.417Z,10.08
2019-04-04T13:43:22.545Z,9.98
2019-04-04T13:45:58.913Z,10.30
2019-04-04T13:48:43.518Z,9.83
2019-04-04T13:51:21.072Z,9.55
2019-04-04T13:54:11.520Z,9.93
2019-04-04T13:56:50.904Z,9.88
2019-04-04T13:59:29.445Z,10.18
2019-04-04T14:02:00.214Z,10.03
2019-04-04T14:04:54.845Z,11.25
2019-04-04T14:07:27.288Z,10.35
2019-04-04T14:09:58.159Z,10.80
2019-04-04T14:12:29.451Z,10.80
2019-04-04T14:14:59.935Z,10.45
2019-04-04T14:17:32.207Z,9.90
2019-04-04T14:20:05.722Z,10.03
2019-04-04T14:22:36.146Z,9.88
2019-04-04T14:25:06.639Z,10.55
2019-04-04T14:27:36.957Z,10.45
2019-04-04T14:30:10.284Z,10.38
2019-04-04T14:32:44.525Z,10.65
2019-04-04T14:35:14.890Z,9.63
2019-04-04T14:37:45.143Z,10.13
2019-04-04T14:40:15.886Z,10.63
2019-04-04T14:42:47.676Z,10.30
2019-04-04T14:45:19.400Z,10.60
2019-04-04T14:47:49.800Z,9.83
2019-04-04T14:50:23.368Z,10.50
2019-04-04T14:52:53.911Z,10.50
2019-04-04T14:55:30.658Z,9.95
2019-04-04T14:58:03.016Z,9.63
2019-04-04T15:00:33.716Z,10.05
2019-04-04T15:03:04.224Z,10.50
2019-04-04T15:05:34.703Z,10.13
2019-04-04T15:08:05.254Z,10.28
2019-04-04T15:10:35.620Z,10.63
2019-04-04T15:13:06.139Z,10.55
2019-04-04T15:15:36.538Z,11.97
2019-04-04T15:18:06.862Z,10.75
2019-04-04T15:20:40.591Z,10.08
2019-04-04T15:23:14.040Z,10.20
2019-04-04T15:25:44.754Z,10.43
2019-04-04T15:28:15.082Z,10.63
2019-04-04T15:30:45.596Z,10.35
2019-04-04T15:33:15.984Z,11.18
2019-04-04T15:35:46.454Z,11.12
2019-04-04T15:38:18.523Z,11.83
2019-04-04T15:40:49.991Z,10.82
2019-04-04T15:43:20.385Z,10.13
2019-04-04T15:45:50.867Z,10.78
2019-04-04T15:48:21.352Z,10.78
2019-04-04T15:50:51.688Z,10.30
2019-04-04T15:53:21.913Z,10.38
2019-04-04T15:55:52.223Z,10.53
2019-04-04T15:58:22.551Z,9.55
2019-04-04T16:00:52.898Z,11.55
2019-04-04T16:03:23.297Z,11.90
2019-04-04T16:05:53.614Z,10.65
2019-04-04T16:08:24.151Z,10.68
2019-04-04T16:10:54.593Z,11.38
2019-04-04T16:13:25.020Z,10.72
2019-04-04T16:15:55.452Z,11.35
2019-04-04T16:18:25.822Z,10.63
2019-04-04T16:20:56.280Z,10.38
2019-04-04T16:23:26.845Z,10.38
2019-04-04T16:25:57.205Z,10.78
2019-04-04T16:28:27.639Z,10.82
2019-04-04T16:30:58.010Z,11.33
2019-04-04T16:33:28.567Z,10.18
2019-04-04T16:35:58.969Z,9.60
2019-04-04T16:38:29.471Z,10.82
2019-04-04T16:41:00.530Z,10.03
2019-04-04T16:43:31.124Z,10.50
2019-04-04T16:46:01.501Z,11.00
2019-04-04T16:48:31.958Z,10.23
2019-04-04T16:51:02.446Z,10.45
2019-04-04T16:53:32.961Z,10.32
2019-04-04T16:56:03.282Z,9.85
2019-04-04T16:58:33.706Z,11.03
2019-04-04T17:01:04.235Z,9.70
2019-04-04T17:03:34.589Z,10.45
2019-04-04T17:06:05.031Z,11.00
2019-04-04T17:08:35.434Z,10.43
2019-04-04T17:11:05.953Z,10.20
2019-04-04T17:13:36.294Z,11.03
2019-04-04T17:16:06.986Z,10.53
2019-04-04T17:18:37.813Z,10.40
2019-04-04T17:21:08.470Z,11.00
2019-04-04T17:23:38.841Z,11.12
2019-04-04T17:26:09.299Z,10.28
2019-04-04T17:28:39.880Z,10.85
2019-04-04T17:31:10.406Z,9.80
2019-04-04T17:33:41.150Z,9.93
2019-04-04T17:36:11.896Z,9.48
2019-04-04T17:38:42.583Z,9.63
2019-04-04T17:41:12.987Z,10.38
2019-04-04T17:43:45.090Z,10.23
2019-04-04T17:46:15.891Z,9.55
2019-04-04T17:48:46.369Z,10.03
2019-04-04T17:51:16.876Z,9.20
2019-04-04T17:53:47.233Z,10.48
2019-04-04T17:56:17.937Z,12.25
2019-04-04T17:58:48.360Z,12.50
2019-04-04T18:01:18.871Z,12.63
2019-04-04T18:03:49.260Z,11.80
2019-04-04T18:06:19.657Z,11.28
2019-04-04T18:08:50.251Z,11.60
2019-04-04T18:11:20.652Z,11.57
2019-04-04T18:13:50.991Z,11.83
2019-04-04T18:16:21.464Z,10.63
2019-04-04T18:18:51.916Z,10.53
2019-04-04T18:21:22.499Z,10.53
2019-04-04T18:23:53.203Z,10.70
2019-04-04T18:26:26.735Z,11.10
2019-04-04T18:28:57.263Z,10.30
2019-04-04T18:31:27.787Z,9.98
2019-04-04T18:33:58.747Z,10.30
2019-04-04T18:36:29.830Z,9.55
2019-04-04T18:39:00.441Z,9.95
2019-04-04T18:41:32.035Z,10.13
2019-04-04T18:44:02.498Z,9.70
2019-04-04T18:46:33.893Z,10.25
2019-04-04T18:49:04.161Z,9.80
2019-04-04T18:51:37.525Z,10.40
2019-04-04T18:54:06.799Z,9.83
2019-04-04T18:56:37.462Z,9.63
2019-04-04T18:59:08.061Z,10.82
2019-04-04T19:01:39.516Z,9.70
2019-04-04T19:04:09.939Z,9.28
2019-04-04T19:06:40.596Z,9.58
2019-04-04T19:09:15.126Z,10.28
2019-04-04T19:11:45.395Z,9.60
2019-04-04T19:14:15.643Z,9.00
2019-04-04T19:16:46.093Z,9.20
2019-04-04T19:19:16.566Z,9.20
2019-04-04T19:21:46.927Z,8.88
2019-04-04T19:24:17.223Z,8.93
2019-04-04T19:26:47.705Z,9.30
2019-04-04T19:29:18.281Z,8.98
2019-04-04T19:31:48.743Z,8.70
2019-04-04T19:34:19.113Z,9.00
2019-04-04T19:36:49.616Z,9.25
2019-04-04T19:39:20.141Z,9.15
2019-04-04T19:41:50.543Z,8.83
2019-04-04T19:44:20.969Z,8.98
2019-04-04T19:46:51.454Z,9.28
2019-04-04T19:49:21.850Z,8.48
2019-04-04T19:51:52.435Z,8.68
2019-04-04T19:54:22.943Z,8.10
2019-04-04T19:56:53.514Z,8.38
2019-04-04T19:59:24.053Z,8.30
2019-04-04T20:01:54.499Z,8.35
2019-04-04T20:04:24.982Z,9.50
2019-04-04T20:06:55.493Z,8.68
2019-04-04T20:09:25.928Z,8.48
2019-04-04T20:11:56.337Z,8.13
2019-04-04T20:14:29.022Z,8.83
2019-04-04T20:16:58.748Z,8.35
2019-04-04T20:19:31.288Z,8.35
2019-04-04T20:22:01.357Z,8.63
2019-04-04T20:24:31.779Z,8.58
2019-04-04T20:27:02.226Z,9.23
2019-04-04T20:29:33.817Z,8.30
2019-04-04T20:32:04.206Z,8.23
2019-04-04T20:34:34.674Z,8.60
2019-04-04T20:37:05.058Z,8.55
2019-04-04T20:39:35.620Z,8.10
2019-04-04T20:42:06.015Z,8.18
2019-04-04T20:44:36.478Z,7.75
2019-04-04T20:47:06.907Z,8.65
2019-04-04T20:49:37.367Z,8.23
2019-04-04T20:52:08.030Z,8.33
2019-04-04T20:54:38.651Z,8.18
2019-04-04T20:57:09.129Z,8.50
2019-04-04T20:59:39.969Z,7.20
2019-04-04T21:02:10.466Z,8.65
2019-04-04T21:04:40.809Z,8.43
2019-04-04T21:07:11.161Z,8.83
2019-04-04T21:09:41.485Z,8.63
2019-04-04T21:12:11.883Z,8.03
2019-04-04T21:14:42.306Z,7.70
2019-04-04T21:17:12.637Z,7.95
2019-04-04T21:19:44.167Z,8.25
2019-04-04T21:22:26.865Z,7.87
2019-04-04T21:24:46.655Z,7.70
2019-04-04T21:27:18.747Z,7.47
2019-04-04T21:29:49.226Z,7.92
2019-04-04T21:32:19.638Z,8.25
2019-04-04T21:34:50.104Z,8.40
2019-04-04T21:37:21.456Z,8.20
2019-04-04T21:39:51.884Z,8.03
2019-04-04T21:42:22.207Z,7.85
2019-04-04T21:44:52.691Z,8.65
2019-04-04T21:47:23.087Z,7.87
2019-04-04T21:49:53.414Z,8.35
2019-04-04T21:52:23.812Z,7.78
2019-04-04T21:54:54.299Z,7.15
2019-04-04T21:57:24.604Z,7.95
2019-04-04T21:59:55.076Z,8.30
2019-04-04T22:02:25.558Z,8.43
2019-04-04T22:04:55.960Z,7.80
2019-04-04T22:07:26.307Z,7.72
2019-04-04T22:09:56.711Z,7.37
2019-04-04T22:12:27.066Z,7.87
2019-04-04T22:14:57.419Z,7.80
2019-04-04T22:17:27.783Z,7.65
2019-04-04T22:19:58.160Z,8.35
2019-04-04T22:22:28.632Z,8.50
2019-04-04T22:24:59.026Z,7.70
2019-04-04T22:27:29.355Z,7.87
2019-04-04T22:29:59.716Z,8.33
2019-04-04T22:32:30.229Z,7.87
2019-04-04T22:35:00.722Z,7.70
2019-04-04T22:37:31.142Z,7.65
2019-04-04T22:40:01.550Z,8.08
2019-04-04T22:42:31.933Z,7.95
2019-04-04T22:45:02.307Z,7.67
2019-04-04T22:47:32.699Z,8.38
2019-04-04T22:50:03.091Z,7.72
2019-04-04T22:52:33.427Z,7.67
2019-04-04T22:55:03.968Z,7.97
2019-04-04T22:57:34.521Z,7.60
2019-04-04T23:00:05.715Z,7.83
2019-04-04T23:02:37.728Z,7.40
2019-04-04T23:05:08.113Z,7.45
2019-04-04T23:07:39.593Z,7.65
2019-04-04T23:10:09.935Z,7.97
2019-04-04T23:12:40.260Z,7.33
2019-04-04T23:15:10.624Z,7.83
2019-04-04T23:17:41.174Z,7.78
2019-04-04T23:20:11.544Z,7.33
2019-04-04T23:22:52.152Z,7.65
2019-04-04T23:25:13.985Z,7.50
2019-04-04T23:27:44.506Z,8.05
2019-04-04T23:30:14.897Z,6.95
2019-04-04T23:32:45.337Z,7.33
2019-04-04T23:35:16.721Z,7.60
2019-04-04T23:37:47.417Z,7.42
2019-04-04T23:40:17.742Z,8.25
2019-04-04T23:42:48.223Z,7.72
2019-04-04T23:45:18.440Z,7.45
2019-04-04T23:47:49.002Z,7.67
2019-04-04T23:50:20.441Z,7.28
2019-04-04T23:52:50.823Z,7.47
2019-04-04T23:55:21.194Z,7.45
2019-04-04T23:57:51.726Z,7.33
